Hernderson, Zimbabwe

5:49 AM CAT on February 06, 2016 (GMT +0200)
Borrowdale Brooke | | Change Station
CLOSE
Current Station
Personal Weather Station
Location: Harare, MASHONALAND
Elevation: 4757 ft
Nearby Weather Stations

Elev 4757 ft 17.71 °S, 31.14 °E | Updated 4 seconds ago

Clear
Clear
65.8 °F
Feels Like 65.8 °F
N
0.0
Wind Variable Wind from SW
Gusts 0.0 mph

Today
High -- | Low -- °F
--% Chance of Precip.
Yesterday
High -- | Low -- °F
Precip. -- in
Pressure 30.18 in
Visibility -9999.0 miles
Clouds
Dew Point 63 °F
Humidity 91%
Rainfall 0.00 in
Snow Depth Not available.
5:45 AM 6:34 PM
Waning Crescent, 8% visible
METAR FVHA 060300Z 11005KT CAVOK 18/17 Q1022 NOSIG RMK QFE 853.9
Pressure 30.18 in
Visibility -9999.0 miles
Clouds
Dew Point 63 °F
Humidity 91%
Rainfall 0.00 in
Snow Depth Not available.
5:45 AM 6:34 PM
Waning Crescent, 8% visible
METAR FVHA 060300Z 11005KT CAVOK 18/17 Q1022 NOSIG RMK QFE 853.9

10-Day Weather Forecast

No radar image for this location.
×

Almanac

Astronomy

Feb. 06, 2016 Rise Set
Actual Time
Civil Twilight
Nautical Twilight
Astronomical Twilight
Moon
Length of Visible Light
Length of Day
Tomorrow will be .
, % of the Moon is Illuminated

Today's Extremes

Country Highs Country Lows

Community

WunderPhotos

Upload Photos

1,890,922 photos uploaded!

WunderBlog® & News

Nearby

Air Quality

  Air Quality AQ Index Pollutant
Not available.

Snow Depth

Station Depth Elevation

Earthquake Activity

City Distance Mag. Time & Date
Minimum magnitude displayed is 2.5.

Coastal Water Temperatures

Place Temperature

Stations

Nearby Weather Stations

Station Location Temp. Windchill Dew Point Humidity Wind Precip. Elev Updated Type